sensor_id;sensor_type;location;lat;lon;timestamp;P1;durP1;ratioP1;P2;durP2;ratioP2
48215;SDS011;34005;48.844;10.098;2023-04-03T00:01:00;3.67;;;2.75;;
48215;SDS011;34005;48.844;10.098;2023-04-03T00:03:27;3.20;;;2.50;;
48215;SDS011;34005;48.844;10.098;2023-04-03T00:05:55;3.13;;;2.63;;
48215;SDS011;34005;48.844;10.098;2023-04-03T00:08:24;3.70;;;3.05;;
48215;SDS011;34005;48.844;10.098;2023-04-03T00:10:52;2.78;;;2.45;;
48215;SDS011;34005;48.844;10.098;2023-04-03T00:13:19;3.17;;;2.78;;
48215;SDS011;34005;48.844;10.098;2023-04-03T00:15:47;4.35;;;3.10;;
48215;SDS011;34005;48.844;10.098;2023-04-03T00:18:15;2.83;;;2.55;;
48215;SDS011;34005;48.844;10.098;2023-04-03T00:20:42;3.97;;;2.60;;
48215;SDS011;34005;48.844;10.098;2023-04-03T00:23:10;3.17;;;2.75;;
48215;SDS011;34005;48.844;10.098;2023-04-03T00:25:39;3.13;;;2.55;;
48215;SDS011;34005;48.844;10.098;2023-04-03T00:28:07;3.92;;;2.63;;
48215;SDS011;34005;48.844;10.098;2023-04-03T00:30:35;3.60;;;2.70;;
48215;SDS011;34005;48.844;10.098;2023-04-03T00:33:04;3.35;;;2.75;;
48215;SDS011;34005;48.844;10.098;2023-04-03T00:35:32;4.03;;;3.05;;
48215;SDS011;34005;48.844;10.098;2023-04-03T00:38:01;3.97;;;3.25;;
48215;SDS011;34005;48.844;10.098;2023-04-03T00:40:32;3.45;;;3.08;;
48215;SDS011;34005;48.844;10.098;2023-04-03T00:43:05;3.45;;;3.03;;
48215;SDS011;34005;48.844;10.098;2023-04-03T00:45:39;2.92;;;2.50;;
48215;SDS011;34005;48.844;10.098;2023-04-03T00:48:10;2.70;;;2.50;;
48215;SDS011;34005;48.844;10.098;2023-04-03T00:50:41;2.63;;;2.40;;
48215;SDS011;34005;48.844;10.098;2023-04-03T00:53:11;5.03;;;2.60;;
48215;SDS011;34005;48.844;10.098;2023-04-03T00:55:43;3.25;;;2.50;;
48215;SDS011;34005;48.844;10.098;2023-04-03T00:58:13;3.20;;;2.90;;
48215;SDS011;34005;48.844;10.098;2023-04-03T01:00:44;5.28;;;2.90;;
48215;SDS011;34005;48.844;10.098;2023-04-03T01:03:17;5.03;;;2.42;;
48215;SDS011;34005;48.844;10.098;2023-04-03T01:05:46;3.97;;;2.60;;
48215;SDS011;34005;48.844;10.098;2023-04-03T01:08:14;2.92;;;2.40;;
48215;SDS011;34005;48.844;10.098;2023-04-03T01:10:41;6.03;;;2.78;;
48215;SDS011;34005;48.844;10.098;2023-04-03T01:13:22;4.93;;;3.42;;
48215;SDS011;34005;48.844;10.098;2023-04-03T01:15:52;3.90;;;3.10;;
48215;SDS011;34005;48.844;10.098;2023-04-03T01:18:20;3.55;;;2.85;;
48215;SDS011;34005;48.844;10.098;2023-04-03T01:23:53;5.03;;;3.03;;
48215;SDS011;34005;48.844;10.098;2023-04-03T01:26:30;3.42;;;2.25;;
48215;SDS011;34005;48.844;10.098;2023-04-03T01:29:01;5.20;;;2.50;;
48215;SDS011;34005;48.844;10.098;2023-04-03T01:31:31;6.43;;;2.65;;
48215;SDS011;34005;48.844;10.098;2023-04-03T01:34:03;5.53;;;2.92;;
48215;SDS011;34005;48.844;10.098;2023-04-03T01:36:31;4.68;;;3.80;;
48215;SDS011;34005;48.844;10.098;2023-04-03T01:38:59;3.25;;;2.95;;
48215;SDS011;34005;48.844;10.098;2023-04-03T01:41:27;2.53;;;2.33;;
48215;SDS011;34005;48.844;10.098;2023-04-03T01:43:55;3.30;;;2.95;;
48215;SDS011;34005;48.844;10.098;2023-04-03T01:46:23;3.88;;;2.95;;
48215;SDS011;34005;48.844;10.098;2023-04-03T01:48:51;3.97;;;2.55;;
48215;SDS011;34005;48.844;10.098;2023-04-03T01:51:20;2.78;;;2.58;;
48215;SDS011;34005;48.844;10.098;2023-04-03T01:53:47;4.47;;;2.78;;
48215;SDS011;34005;48.844;10.098;2023-04-03T01:56:15;3.40;;;2.88;;
48215;SDS011;34005;48.844;10.098;2023-04-03T01:58:42;6.75;;;2.88;;
48215;SDS011;34005;48.844;10.098;2023-04-03T02:01:10;4.82;;;3.47;;
48215;SDS011;34005;48.844;10.098;2023-04-03T02:03:38;2.80;;;2.17;;
48215;SDS011;34005;48.844;10.098;2023-04-03T02:06:05;4.00;;;2.63;;
48215;SDS011;34005;48.844;10.098;2023-04-03T02:08:34;2.53;;;2.33;;
48215;SDS011;34005;48.844;10.098;2023-04-03T02:11:02;3.33;;;2.40;;
48215;SDS011;34005;48.844;10.098;2023-04-03T02:13:30;3.22;;;2.72;;
48215;SDS011;34005;48.844;10.098;2023-04-03T02:15:57;2.97;;;2.67;;
48215;SDS011;34005;48.844;10.098;2023-04-03T02:18:25;3.20;;;2.25;;
48215;SDS011;34005;48.844;10.098;2023-04-03T02:20:52;3.65;;;2.30;;
48215;SDS011;34005;48.844;10.098;2023-04-03T02:23:20;4.50;;;2.55;;
48215;SDS011;34005;48.844;10.098;2023-04-03T02:25:48;2.50;;;2.30;;
48215;SDS011;34005;48.844;10.098;2023-04-03T02:28:16;3.80;;;3.00;;
48215;SDS011;34005;48.844;10.098;2023-04-03T02:30:44;2.85;;;2.45;;
48215;SDS011;34005;48.844;10.098;2023-04-03T02:33:11;3.22;;;2.92;;
48215;SDS011;34005;48.844;10.098;2023-04-03T02:35:39;4.05;;;2.60;;
48215;SDS011;34005;48.844;10.098;2023-04-03T02:38:06;3.65;;;2.20;;
48215;SDS011;34005;48.844;10.098;2023-04-03T02:40:34;2.65;;;2.30;;
48215;SDS011;34005;48.844;10.098;2023-04-03T02:43:03;2.00;;;1.90;;
48215;SDS011;34005;48.844;10.098;2023-04-03T02:45:30;2.40;;;2.20;;
48215;SDS011;34005;48.844;10.098;2023-04-03T02:47:58;5.10;;;1.90;;
48215;SDS011;34005;48.844;10.098;2023-04-03T02:50:26;2.72;;;2.53;;
48215;SDS011;34005;48.844;10.098;2023-04-03T02:52:53;1.95;;;1.83;;
48215;SDS011;34005;48.844;10.098;2023-04-03T02:55:21;2.13;;;1.98;;
48215;SDS011;34005;48.844;10.098;2023-04-03T02:57:48;2.35;;;2.10;;
48215;SDS011;34005;48.844;10.098;2023-04-03T03:00:18;4.38;;;2.20;;
48215;SDS011;34005;48.844;10.098;2023-04-03T03:02:46;2.75;;;2.05;;
48215;SDS011;34005;48.844;10.098;2023-04-03T03:05:15;6.43;;;2.03;;
48215;SDS011;34005;48.844;10.098;2023-04-03T03:07:43;2.42;;;2.22;;
48215;SDS011;34005;48.844;10.098;2023-04-03T03:10:11;3.63;;;2.47;;
48215;SDS011;34005;48.844;10.098;2023-04-03T03:12:39;2.30;;;2.05;;
48215;SDS011;34005;48.844;10.098;2023-04-03T03:15:07;2.30;;;2.10;;
48215;SDS011;34005;48.844;10.098;2023-04-03T03:17:36;3.25;;;2.58;;
48215;SDS011;34005;48.844;10.098;2023-04-03T03:20:05;3.15;;;2.75;;
48215;SDS011;34005;48.844;10.098;2023-04-03T03:22:34;2.72;;;2.33;;
48215;SDS011;34005;48.844;10.098;2023-04-03T03:25:01;2.50;;;2.30;;
48215;SDS011;34005;48.844;10.098;2023-04-03T03:27:29;2.30;;;1.83;;
48215;SDS011;34005;48.844;10.098;2023-04-03T03:29:57;2.30;;;1.80;;
48215;SDS011;34005;48.844;10.098;2023-04-03T03:32:24;2.25;;;2.05;;
48215;SDS011;34005;48.844;10.098;2023-04-03T03:34:53;2.20;;;2.00;;
48215;SDS011;34005;48.844;10.098;2023-04-03T03:37:21;2.20;;;2.00;;
48215;SDS011;34005;48.844;10.098;2023-04-03T03:39:49;2.83;;;1.95;;
48215;SDS011;34005;48.844;10.098;2023-04-03T03:42:16;2.40;;;1.73;;
48215;SDS011;34005;48.844;10.098;2023-04-03T03:44:44;2.13;;;1.88;;
48215;SDS011;34005;48.844;10.098;2023-04-03T03:47:11;2.33;;;2.13;;
48215;SDS011;34005;48.844;10.098;2023-04-03T03:49:39;3.15;;;2.25;;
48215;SDS011;34005;48.844;10.098;2023-04-03T03:52:08;2.22;;;2.00;;
48215;SDS011;34005;48.844;10.098;2023-04-03T03:54:36;2.85;;;2.40;;
48215;SDS011;34005;48.844;10.098;2023-04-03T03:57:04;2.58;;;2.38;;
48215;SDS011;34005;48.844;10.098;2023-04-03T03:59:32;3.00;;;2.33;;
48215;SDS011;34005;48.844;10.098;2023-04-03T04:02:00;3.08;;;1.95;;
48215;SDS011;34005;48.844;10.098;2023-04-03T04:04:27;2.90;;;2.10;;
48215;SDS011;34005;48.844;10.098;2023-04-03T04:06:55;2.40;;;1.80;;
48215;SDS011;34005;48.844;10.098;2023-04-03T04:09:24;3.03;;;2.30;;
48215;SDS011;34005;48.844;10.098;2023-04-03T04:11:51;3.75;;;2.40;;
48215;SDS011;34005;48.844;10.098;2023-04-03T04:14:19;2.75;;;2.03;;
48215;SDS011;34005;48.844;10.098;2023-04-03T04:16:47;1.80;;;1.70;;
48215;SDS011;34005;48.844;10.098;2023-04-03T04:19:15;3.58;;;1.92;;
48215;SDS011;34005;48.844;10.098;2023-04-03T04:21:42;3.55;;;2.10;;
48215;SDS011;34005;48.844;10.098;2023-04-03T04:24:10;2.47;;;2.22;;
48215;SDS011;34005;48.844;10.098;2023-04-03T04:26:39;2.80;;;2.13;;
48215;SDS011;34005;48.844;10.098;2023-04-03T04:29:08;3.90;;;2.60;;
48215;SDS011;34005;48.844;10.098;2023-04-03T04:31:36;3.95;;;2.63;;
48215;SDS011;34005;48.844;10.098;2023-04-03T04:34:03;4.68;;;2.38;;
48215;SDS011;34005;48.844;10.098;2023-04-03T04:36:31;2.22;;;2.03;;
48215;SDS011;34005;48.844;10.098;2023-04-03T04:38:59;2.65;;;2.45;;
48215;SDS011;34005;48.844;10.098;2023-04-03T04:41:26;3.00;;;2.50;;
48215;SDS011;34005;48.844;10.098;2023-04-03T04:43:55;4.05;;;2.00;;
48215;SDS011;34005;48.844;10.098;2023-04-03T04:46:23;2.22;;;2.03;;
48215;SDS011;34005;48.844;10.098;2023-04-03T04:48:51;3.03;;;2.13;;
48215;SDS011;34005;48.844;10.098;2023-04-03T04:51:18;3.53;;;2.47;;
48215;SDS011;34005;48.844;10.098;2023-04-03T04:53:46;3.60;;;2.15;;
48215;SDS011;34005;48.844;10.098;2023-04-03T04:56:14;5.78;;;2.88;;
48215;SDS011;34005;48.844;10.098;2023-04-03T04:58:41;6.75;;;3.30;;
48215;SDS011;34005;48.844;10.098;2023-04-03T05:01:10;4.05;;;2.60;;
48215;SDS011;34005;48.844;10.098;2023-04-03T05:03:38;2.78;;;2.25;;
48215;SDS011;34005;48.844;10.098;2023-04-03T05:06:07;3.80;;;2.30;;
48215;SDS011;34005;48.844;10.098;2023-04-03T05:08:36;4.22;;;2.22;;
48215;SDS011;34005;48.844;10.098;2023-04-03T05:11:04;2.47;;;2.10;;
48215;SDS011;34005;48.844;10.098;2023-04-03T05:13:32;3.13;;;2.58;;
48215;SDS011;34005;48.844;10.098;2023-04-03T05:15:59;3.38;;;2.15;;
48215;SDS011;34005;48.844;10.098;2023-04-03T05:18:28;2.15;;;1.95;;
48215;SDS011;34005;48.844;10.098;2023-04-03T05:20:56;4.95;;;2.33;;
48215;SDS011;34005;48.844;10.098;2023-04-03T05:23:23;3.42;;;2.38;;
48215;SDS011;34005;48.844;10.098;2023-04-03T05:25:51;5.65;;;2.00;;
48215;SDS011;34005;48.844;10.098;2023-04-03T05:28:20;3.83;;;2.97;;
48215;SDS011;34005;48.844;10.098;2023-04-03T05:30:52;2.13;;;1.95;;
48215;SDS011;34005;48.844;10.098;2023-04-03T05:35:49;3.33;;;2.90;;
48215;SDS011;34005;48.844;10.098;2023-04-03T05:38:16;4.85;;;2.40;;
48215;SDS011;34005;48.844;10.098;2023-04-03T05:40:44;2.10;;;1.83;;
48215;SDS011;34005;48.844;10.098;2023-04-03T05:43:12;4.68;;;1.90;;
48215;SDS011;34005;48.844;10.098;2023-04-03T05:45:40;3.60;;;1.73;;
48215;SDS011;34005;48.844;10.098;2023-04-03T05:48:10;3.08;;;2.20;;
48215;SDS011;34005;48.844;10.098;2023-04-03T05:50:38;2.42;;;1.83;;
48215;SDS011;34005;48.844;10.098;2023-04-03T05:53:10;4.10;;;2.17;;
48215;SDS011;34005;48.844;10.098;2023-04-03T05:55:44;4.25;;;2.40;;
48215;SDS011;34005;48.844;10.098;2023-04-03T05:58:12;5.90;;;2.70;;
48215;SDS011;34005;48.844;10.098;2023-04-03T06:00:40;4.65;;;2.67;;
48215;SDS011;34005;48.844;10.098;2023-04-03T06:03:07;3.28;;;1.90;;
48215;SDS011;34005;48.844;10.098;2023-04-03T06:05:35;5.65;;;3.28;;
48215;SDS011;34005;48.844;10.098;2023-04-03T06:08:03;6.43;;;4.30;;
48215;SDS011;34005;48.844;10.098;2023-04-03T06:10:32;6.30;;;3.28;;
48215;SDS011;34005;48.844;10.098;2023-04-03T06:12:59;6.05;;;2.83;;
48215;SDS011;34005;48.844;10.098;2023-04-03T06:15:27;3.88;;;3.22;;
48215;SDS011;34005;48.844;10.098;2023-04-03T06:17:55;3.50;;;2.35;;
48215;SDS011;34005;48.844;10.098;2023-04-03T06:20:22;4.93;;;3.55;;
48215;SDS011;34005;48.844;10.098;2023-04-03T06:22:50;5.00;;;2.20;;
48215;SDS011;34005;48.844;10.098;2023-04-03T06:25:17;6.25;;;3.17;;
48215;SDS011;34005;48.844;10.098;2023-04-03T06:27:47;6.22;;;2.90;;
48215;SDS011;34005;48.844;10.098;2023-04-03T06:30:14;5.50;;;3.20;;
48215;SDS011;34005;48.844;10.098;2023-04-03T06:32:42;5.20;;;3.15;;
48215;SDS011;34005;48.844;10.098;2023-04-03T06:35:10;4.35;;;3.13;;
48215;SDS011;34005;48.844;10.098;2023-04-03T06:37:37;3.28;;;2.50;;
48215;SDS011;34005;48.844;10.098;2023-04-03T06:40:06;5.90;;;2.92;;
48215;SDS011;34005;48.844;10.098;2023-04-03T06:42:36;3.47;;;2.45;;
48215;SDS011;34005;48.844;10.098;2023-04-03T06:45:06;5.22;;;2.50;;
48215;SDS011;34005;48.844;10.098;2023-04-03T06:47:35;4.22;;;3.13;;
48215;SDS011;34005;48.844;10.098;2023-04-03T06:50:03;4.38;;;3.08;;
48215;SDS011;34005;48.844;10.098;2023-04-03T06:52:32;4.80;;;2.75;;
48215;SDS011;34005;48.844;10.098;2023-04-03T06:55:00;4.03;;;2.83;;
48215;SDS011;34005;48.844;10.098;2023-04-03T06:57:28;3.13;;;2.40;;
48215;SDS011;34005;48.844;10.098;2023-04-03T06:59:55;3.58;;;2.45;;
48215;SDS011;34005;48.844;10.098;2023-04-03T07:02:24;5.07;;;2.70;;
48215;SDS011;34005;48.844;10.098;2023-04-03T07:04:52;6.68;;;3.38;;
48215;SDS011;34005;48.844;10.098;2023-04-03T07:07:20;3.75;;;2.55;;
48215;SDS011;34005;48.844;10.098;2023-04-03T07:09:48;3.50;;;3.03;;
48215;SDS011;34005;48.844;10.098;2023-04-03T07:12:15;5.10;;;2.53;;
48215;SDS011;34005;48.844;10.098;2023-04-03T07:14:43;5.18;;;2.55;;
48215;SDS011;34005;48.844;10.098;2023-04-03T07:17:10;4.57;;;3.17;;
48215;SDS011;34005;48.844;10.098;2023-04-03T07:19:39;5.03;;;2.90;;
48215;SDS011;34005;48.844;10.098;2023-04-03T07:22:07;2.85;;;2.45;;
48215;SDS011;34005;48.844;10.098;2023-04-03T07:24:35;5.20;;;2.78;;
48215;SDS011;34005;48.844;10.098;2023-04-03T07:27:02;4.60;;;2.67;;
48215;SDS011;34005;48.844;10.098;2023-04-03T07:29:30;6.80;;;2.80;;
48215;SDS011;34005;48.844;10.098;2023-04-03T07:31:58;4.35;;;3.08;;
48215;SDS011;34005;48.844;10.098;2023-04-03T07:34:26;5.93;;;3.78;;
48215;SDS011;34005;48.844;10.098;2023-04-03T07:36:55;5.53;;;2.80;;
48215;SDS011;34005;48.844;10.098;2023-04-03T07:39:22;5.03;;;2.75;;
48215;SDS011;34005;48.844;10.098;2023-04-03T07:41:50;7.05;;;3.45;;
48215;SDS011;34005;48.844;10.098;2023-04-03T07:44:18;5.95;;;3.35;;
48215;SDS011;34005;48.844;10.098;2023-04-03T07:46:45;4.38;;;2.88;;
48215;SDS011;34005;48.844;10.098;2023-04-03T07:49:13;6.30;;;3.13;;
48215;SDS011;34005;48.844;10.098;2023-04-03T07:51:40;4.63;;;3.13;;
48215;SDS011;34005;48.844;10.098;2023-04-03T07:54:09;4.70;;;3.10;;
48215;SDS011;34005;48.844;10.098;2023-04-03T07:56:37;5.30;;;3.08;;
48215;SDS011;34005;48.844;10.098;2023-04-03T07:59:04;4.13;;;2.78;;
48215;SDS011;34005;48.844;10.098;2023-04-03T08:01:32;3.70;;;2.95;;
48215;SDS011;34005;48.844;10.098;2023-04-03T08:04:00;4.25;;;2.83;;
48215;SDS011;34005;48.844;10.098;2023-04-03T08:06:28;5.20;;;3.53;;
48215;SDS011;34005;48.844;10.098;2023-04-03T08:09:12;3.78;;;2.97;;
48215;SDS011;34005;48.844;10.098;2023-04-03T08:11:41;3.60;;;2.58;;
48215;SDS011;34005;48.844;10.098;2023-04-03T08:14:10;3.92;;;2.72;;
48215;SDS011;34005;48.844;10.098;2023-04-03T08:16:42;3.45;;;2.72;;
48215;SDS011;34005;48.844;10.098;2023-04-03T08:19:11;3.17;;;2.58;;
48215;SDS011;34005;48.844;10.098;2023-04-03T08:21:51;5.05;;;3.25;;
48215;SDS011;34005;48.844;10.098;2023-04-03T08:24:19;3.97;;;2.70;;
48215;SDS011;34005;48.844;10.098;2023-04-03T08:26:47;6.88;;;3.25;;
48215;SDS011;34005;48.844;10.098;2023-04-03T08:29:15;5.40;;;3.83;;
48215;SDS011;34005;48.844;10.098;2023-04-03T08:31:42;3.22;;;2.65;;
48215;SDS011;34005;48.844;10.098;2023-04-03T08:34:10;3.53;;;2.80;;
48215;SDS011;34005;48.844;10.098;2023-04-03T08:36:39;7.80;;;3.03;;
48215;SDS011;34005;48.844;10.098;2023-04-03T08:39:07;5.38;;;3.10;;
48215;SDS011;34005;48.844;10.098;2023-04-03T08:41:37;4.88;;;2.95;;
48215;SDS011;34005;48.844;10.098;2023-04-03T08:44:11;5.97;;;2.80;;
48215;SDS011;34005;48.844;10.098;2023-04-03T08:46:46;6.13;;;2.70;;
48215;SDS011;34005;48.844;10.098;2023-04-03T08:49:24;4.57;;;2.72;;
48215;SDS011;34005;48.844;10.098;2023-04-03T08:51:55;5.47;;;3.17;;
48215;SDS011;34005;48.844;10.098;2023-04-03T08:54:29;3.03;;;2.72;;
48215;SDS011;34005;48.844;10.098;2023-04-03T08:57:02;4.32;;;2.97;;
48215;SDS011;34005;48.844;10.098;2023-04-03T08:59:32;4.03;;;2.70;;
48215;SDS011;34005;48.844;10.098;2023-04-03T09:02:02;4.05;;;2.20;;
48215;SDS011;34005;48.844;10.098;2023-04-03T09:04:33;2.60;;;2.20;;
48215;SDS011;34005;48.844;10.098;2023-04-03T09:07:02;3.17;;;2.88;;
48215;SDS011;34005;48.844;10.098;2023-04-03T09:09:35;2.75;;;2.50;;
48215;SDS011;34005;48.844;10.098;2023-04-03T09:12:12;7.07;;;2.78;;
48215;SDS011;34005;48.844;10.098;2023-04-03T09:14:46;3.92;;;2.40;;
48215;SDS011;34005;48.844;10.098;2023-04-03T09:17:27;2.97;;;2.28;;
48215;SDS011;34005;48.844;10.098;2023-04-03T09:20:08;9.43;;;5.43;;
48215;SDS011;34005;48.844;10.098;2023-04-03T09:22:46;10.43;;;4.13;;
48215;SDS011;34005;48.844;10.098;2023-04-03T09:25:18;9.18;;;4.85;;
48215;SDS011;34005;48.844;10.098;2023-04-03T09:27:51;4.00;;;2.75;;
48215;SDS011;34005;48.844;10.098;2023-04-03T09:30:19;4.53;;;3.00;;
48215;SDS011;34005;48.844;10.098;2023-04-03T09:32:50;4.13;;;2.33;;
48215;SDS011;34005;48.844;10.098;2023-04-03T09:35:21;2.83;;;1.90;;
48215;SDS011;34005;48.844;10.098;2023-04-03T09:38:14;4.68;;;3.28;;
48215;SDS011;34005;48.844;10.098;2023-04-03T09:40:44;4.22;;;3.53;;
48215;SDS011;34005;48.844;10.098;2023-04-03T09:43:27;4.50;;;2.60;;
48215;SDS011;34005;48.844;10.098;2023-04-03T09:45:56;3.85;;;2.60;;
48215;SDS011;34005;48.844;10.098;2023-04-03T09:48:50;3.17;;;2.40;;
48215;SDS011;34005;48.844;10.098;2023-04-03T09:51:33;3.38;;;2.20;;
48215;SDS011;34005;48.844;10.098;2023-04-03T09:54:02;3.03;;;1.80;;
48215;SDS011;34005;48.844;10.098;2023-04-03T09:56:59;4.47;;;2.13;;
48215;SDS011;34005;48.844;10.098;2023-04-03T10:01:59;2.80;;;1.90;;
48215;SDS011;34005;48.844;10.098;2023-04-03T10:04:37;3.03;;;1.83;;
48215;SDS011;34005;48.844;10.098;2023-04-03T10:10:19;3.33;;;2.00;;
48215;SDS011;34005;48.844;10.098;2023-04-03T10:12:57;4.03;;;2.47;;
48215;SDS011;34005;48.844;10.098;2023-04-03T10:15:33;3.40;;;3.10;;
48215;SDS011;34005;48.844;10.098;2023-04-03T10:18:07;3.15;;;2.67;;
48215;SDS011;34005;48.844;10.098;2023-04-03T10:20:50;4.70;;;2.30;;
48215;SDS011;34005;48.844;10.098;2023-04-03T10:23:21;3.28;;;2.40;;
48215;SDS011;34005;48.844;10.098;2023-04-03T10:25:59;2.53;;;2.00;;
48215;SDS011;34005;48.844;10.098;2023-04-03T10:28:35;15.73;;;2.65;;
48215;SDS011;34005;48.844;10.098;2023-04-03T10:31:13;2.80;;;2.20;;
48215;SDS011;34005;48.844;10.098;2023-04-03T10:33:49;2.58;;;1.83;;
48215;SDS011;34005;48.844;10.098;2023-04-03T10:36:29;3.25;;;2.00;;
48215;SDS011;34005;48.844;10.098;2023-04-03T10:39:08;4.80;;;2.78;;
48215;SDS011;34005;48.844;10.098;2023-04-03T10:41:49;3.15;;;2.00;;
48215;SDS011;34005;48.844;10.098;2023-04-03T10:44:42;3.28;;;2.10;;
48215;SDS011;34005;48.844;10.098;2023-04-03T10:47:30;3.25;;;2.13;;
48215;SDS011;34005;48.844;10.098;2023-04-03T10:50:07;4.45;;;2.00;;
48215;SDS011;34005;48.844;10.098;2023-04-03T10:52:56;2.10;;;1.70;;
48215;SDS011;34005;48.844;10.098;2023-04-03T10:55:31;3.40;;;2.15;;
48215;SDS011;34005;48.844;10.098;2023-04-03T10:58:05;3.78;;;2.05;;
48215;SDS011;34005;48.844;10.098;2023-04-03T11:00:39;4.10;;;2.40;;
48215;SDS011;34005;48.844;10.098;2023-04-03T11:03:11;3.30;;;2.03;;
48215;SDS011;34005;48.844;10.098;2023-04-03T11:05:43;3.58;;;2.08;;
48215;SDS011;34005;48.844;10.098;2023-04-03T11:08:14;2.80;;;1.92;;
48215;SDS011;34005;48.844;10.098;2023-04-03T11:10:51;1.98;;;1.70;;
48215;SDS011;34005;48.844;10.098;2023-04-03T11:13:24;3.85;;;1.77;;
48215;SDS011;34005;48.844;10.098;2023-04-03T11:15:55;3.03;;;1.80;;
48215;SDS011;34005;48.844;10.098;2023-04-03T11:18:25;2.72;;;1.67;;
48215;SDS011;34005;48.844;10.098;2023-04-03T11:21:00;3.72;;;1.67;;
48215;SDS011;34005;48.844;10.098;2023-04-03T11:23:33;3.40;;;2.20;;
48215;SDS011;34005;48.844;10.098;2023-04-03T11:26:15;3.70;;;2.47;;
48215;SDS011;34005;48.844;10.098;2023-04-03T11:28:46;5.45;;;2.45;;
48215;SDS011;34005;48.844;10.098;2023-04-03T11:31:31;5.00;;;2.33;;
48215;SDS011;34005;48.844;10.098;2023-04-03T11:34:08;6.13;;;3.25;;
48215;SDS011;34005;48.844;10.098;2023-04-03T11:36:47;2.47;;;2.00;;
48215;SDS011;34005;48.844;10.098;2023-04-03T11:39:20;4.53;;;2.08;;
48215;SDS011;34005;48.844;10.098;2023-04-03T11:44:35;3.65;;;2.42;;
48215;SDS011;34005;48.844;10.098;2023-04-03T11:47:04;3.37;;;1.73;;
48215;SDS011;34005;48.844;10.098;2023-04-03T11:55:41;2.53;;;1.88;;
48215;SDS011;34005;48.844;10.098;2023-04-03T11:58:14;2.67;;;2.25;;
48215;SDS011;34005;48.844;10.098;2023-04-03T12:00:48;2.80;;;2.33;;
48215;SDS011;34005;48.844;10.098;2023-04-03T12:12:57;2.67;;;2.03;;
48215;SDS011;34005;48.844;10.098;2023-04-03T12:15:38;2.55;;;2.15;;
48215;SDS011;34005;48.844;10.098;2023-04-03T12:21:20;2.95;;;1.90;;
48215;SDS011;34005;48.844;10.098;2023-04-03T12:24:02;4.40;;;2.78;;
48215;SDS011;34005;48.844;10.098;2023-04-03T12:26:34;3.95;;;1.95;;
48215;SDS011;34005;48.844;10.098;2023-04-03T12:29:15;5.23;;;2.30;;
48215;SDS011;34005;48.844;10.098;2023-04-03T12:31:50;2.67;;;2.22;;
48215;SDS011;34005;48.844;10.098;2023-04-03T12:34:30;3.45;;;2.15;;
48215;SDS011;34005;48.844;10.098;2023-04-03T12:37:19;3.28;;;2.58;;
48215;SDS011;34005;48.844;10.098;2023-04-03T12:40:01;5.35;;;2.70;;
48215;SDS011;34005;48.844;10.098;2023-04-03T12:42:48;3.83;;;2.80;;
48215;SDS011;34005;48.844;10.098;2023-04-03T12:45:37;3.63;;;2.28;;
48215;SDS011;34005;48.844;10.098;2023-04-03T12:48:12;2.85;;;2.42;;
48215;SDS011;34005;48.844;10.098;2023-04-03T12:50:43;3.60;;;2.05;;
48215;SDS011;34005;48.844;10.098;2023-04-03T12:53:15;3.88;;;2.40;;
48215;SDS011;34005;48.844;10.098;2023-04-03T12:55:45;5.03;;;2.25;;
48215;SDS011;34005;48.844;10.098;2023-04-03T12:58:13;3.28;;;2.60;;
48215;SDS011;34005;48.844;10.098;2023-04-03T13:00:42;4.70;;;2.80;;
48215;SDS011;34005;48.844;10.098;2023-04-03T13:03:19;4.43;;;2.30;;
48215;SDS011;34005;48.844;10.098;2023-04-03T13:05:50;2.65;;;2.45;;
48215;SDS011;34005;48.844;10.098;2023-04-03T13:08:19;3.30;;;2.30;;
48215;SDS011;34005;48.844;10.098;2023-04-03T13:10:49;3.30;;;2.67;;
48215;SDS011;34005;48.844;10.098;2023-04-03T13:13:21;3.70;;;2.40;;
48215;SDS011;34005;48.844;10.098;2023-04-03T13:15:50;3.42;;;2.30;;
48215;SDS011;34005;48.844;10.098;2023-04-03T13:18:22;3.22;;;2.42;;
48215;SDS011;34005;48.844;10.098;2023-04-03T13:20:52;2.35;;;2.10;;
48215;SDS011;34005;48.844;10.098;2023-04-03T13:23:24;2.20;;;1.80;;
48215;SDS011;34005;48.844;10.098;2023-04-03T13:25:52;3.17;;;1.80;;
48215;SDS011;34005;48.844;10.098;2023-04-03T13:28:21;2.10;;;1.65;;
48215;SDS011;34005;48.844;10.098;2023-04-03T13:30:55;2.80;;;2.05;;
48215;SDS011;34005;48.844;10.098;2023-04-03T13:33:29;2.10;;;1.90;;
48215;SDS011;34005;48.844;10.098;2023-04-03T13:36:02;3.70;;;2.30;;
48215;SDS011;34005;48.844;10.098;2023-04-03T13:38:32;6.22;;;2.10;;
48215;SDS011;34005;48.844;10.098;2023-04-03T13:41:03;2.95;;;2.17;;
48215;SDS011;34005;48.844;10.098;2023-04-03T13:43:47;3.80;;;2.38;;
48215;SDS011;34005;48.844;10.098;2023-04-03T13:46:21;2.85;;;1.75;;
48215;SDS011;34005;48.844;10.098;2023-04-03T13:48:52;2.30;;;1.85;;
48215;SDS011;34005;48.844;10.098;2023-04-03T13:51:22;3.08;;;2.47;;
48215;SDS011;34005;48.844;10.098;2023-04-03T13:53:55;4.00;;;2.03;;
48215;SDS011;34005;48.844;10.098;2023-04-03T13:56:26;2.03;;;1.80;;
48215;SDS011;34005;48.844;10.098;2023-04-03T13:58:59;1.65;;;1.55;;
48215;SDS011;34005;48.844;10.098;2023-04-03T14:01:37;6.50;;;1.90;;
48215;SDS011;34005;48.844;10.098;2023-04-03T14:04:11;1.75;;;1.60;;
48215;SDS011;34005;48.844;10.098;2023-04-03T14:06:42;1.98;;;1.75;;
48215;SDS011;34005;48.844;10.098;2023-04-03T14:09:11;2.10;;;1.27;;
48215;SDS011;34005;48.844;10.098;2023-04-03T14:11:39;3.33;;;1.85;;
48215;SDS011;34005;48.844;10.098;2023-04-03T14:14:10;3.08;;;1.70;;
48215;SDS011;34005;48.844;10.098;2023-04-03T14:16:42;2.30;;;1.67;;
48215;SDS011;34005;48.844;10.098;2023-04-03T14:19:14;2.30;;;1.83;;
48215;SDS011;34005;48.844;10.098;2023-04-03T14:21:46;3.45;;;1.95;;
48215;SDS011;34005;48.844;10.098;2023-04-03T14:24:15;2.80;;;2.05;;
48215;SDS011;34005;48.844;10.098;2023-04-03T14:26:43;1.67;;;1.40;;
48215;SDS011;34005;48.844;10.098;2023-04-03T14:29:12;2.67;;;1.52;;
48215;SDS011;34005;48.844;10.098;2023-04-03T14:31:40;2.42;;;1.77;;
48215;SDS011;34005;48.844;10.098;2023-04-03T14:34:09;2.22;;;1.90;;
48215;SDS011;34005;48.844;10.098;2023-04-03T14:36:38;2.80;;;1.58;;
48215;SDS011;34005;48.844;10.098;2023-04-03T14:39:07;4.47;;;1.70;;
48215;SDS011;34005;48.844;10.098;2023-04-03T14:41:39;2.20;;;1.73;;
48215;SDS011;34005;48.844;10.098;2023-04-03T14:44:07;2.80;;;1.70;;
48215;SDS011;34005;48.844;10.098;2023-04-03T14:46:35;3.70;;;2.28;;
48215;SDS011;34005;48.844;10.098;2023-04-03T14:49:23;4.15;;;2.75;;
48215;SDS011;34005;48.844;10.098;2023-04-03T14:51:54;2.78;;;1.77;;
48215;SDS011;34005;48.844;10.098;2023-04-03T14:54:22;2.05;;;1.80;;
48215;SDS011;34005;48.844;10.098;2023-04-03T14:56:55;2.97;;;1.83;;
48215;SDS011;34005;48.844;10.098;2023-04-03T14:59:25;3.22;;;2.05;;
48215;SDS011;34005;48.844;10.098;2023-04-03T15:01:54;3.67;;;2.40;;
48215;SDS011;34005;48.844;10.098;2023-04-03T15:04:21;2.85;;;2.42;;
48215;SDS011;34005;48.844;10.098;2023-04-03T15:06:49;3.22;;;2.03;;
48215;SDS011;34005;48.844;10.098;2023-04-03T15:09:19;8.95;;;2.38;;
48215;SDS011;34005;48.844;10.098;2023-04-03T15:11:48;3.05;;;1.83;;
48215;SDS011;34005;48.844;10.098;2023-04-03T15:14:18;1.90;;;1.45;;
48215;SDS011;34005;48.844;10.098;2023-04-03T15:17:06;3.72;;;2.17;;
48215;SDS011;34005;48.844;10.098;2023-04-03T15:19:41;2.47;;;1.73;;
48215;SDS011;34005;48.844;10.098;2023-04-03T15:22:09;6.32;;;2.25;;
48215;SDS011;34005;48.844;10.098;2023-04-03T15:24:41;3.42;;;2.15;;
48215;SDS011;34005;48.844;10.098;2023-04-03T15:27:08;2.10;;;1.55;;